createdAt,value
2023-09-06T00:01:30.650Z,3.10
2023-09-06T00:03:57.289Z,2.67
2023-09-06T00:06:23.985Z,2.77
2023-09-06T00:08:51.911Z,2.67
2023-09-06T00:11:18.340Z,3.13
2023-09-06T00:13:44.676Z,2.90
2023-09-06T00:16:11.001Z,3.07
2023-09-06T00:18:38.550Z,3.40
2023-09-06T00:21:06.905Z,2.70
2023-09-06T00:23:33.959Z,3.10
2023-09-06T00:26:00.517Z,3.10
2023-09-06T00:28:27.798Z,2.80
2023-09-06T00:30:58.868Z,2.80
2023-09-06T00:33:34.106Z,3.23
2023-09-06T00:36:02.236Z,2.60
2023-09-06T00:38:30.223Z,3.60
2023-09-06T00:40:56.829Z,2.90
2023-09-06T00:43:23.268Z,3.10
2023-09-06T00:45:51.836Z,3.70
2023-09-06T00:48:30.654Z,3.20
2023-09-06T00:50:58.337Z,3.07
2023-09-06T00:53:26.424Z,3.10
2023-09-06T00:55:53.262Z,3.00
2023-09-06T00:58:21.407Z,3.60
2023-09-06T01:00:51.299Z,3.20
2023-09-06T01:03:18.533Z,3.10
2023-09-06T01:05:53.257Z,3.40
2023-09-06T01:08:29.972Z,3.40
2023-09-06T01:11:12.207Z,3.10
2023-09-06T01:13:38.595Z,3.20
2023-09-06T01:16:05.268Z,3.10
2023-09-06T01:18:32.135Z,3.13
2023-09-06T01:21:07.695Z,3.07
2023-09-06T01:23:35.798Z,3.10
2023-09-06T01:26:03.511Z,3.47
2023-09-06T01:28:30.410Z,3.30
2023-09-06T01:30:57.792Z,3.23
2023-09-06T01:33:24.315Z,3.10
2023-09-06T01:35:51.736Z,3.30
2023-09-06T01:38:18.669Z,3.20
2023-09-06T01:40:45.688Z,2.83
2023-09-06T01:43:12.755Z,3.50
2023-09-06T01:45:45.923Z,3.70
2023-09-06T01:48:12.766Z,3.60
2023-09-06T01:50:39.115Z,3.40
2023-09-06T01:53:05.488Z,3.30
2023-09-06T01:55:31.886Z,3.30
2023-09-06T01:57:58.274Z,3.30
2023-09-06T02:00:33.365Z,3.60
2023-09-06T02:03:00.893Z,3.70
2023-09-06T02:05:27.416Z,3.47
2023-09-06T02:07:53.750Z,3.20
2023-09-06T02:10:20.183Z,3.70
2023-09-06T02:12:46.688Z,3.63
2023-09-06T02:15:16.298Z,3.53
2023-09-06T02:17:44.158Z,3.87
2023-09-06T02:20:25.653Z,3.20
2023-09-06T02:22:57.338Z,3.50
2023-09-06T02:25:31.786Z,3.50
2023-09-06T02:27:59.330Z,3.37
2023-09-06T02:30:26.080Z,3.50
2023-09-06T02:32:53.359Z,3.80
2023-09-06T02:35:20.023Z,3.23
2023-09-06T02:37:46.416Z,3.40
2023-09-06T02:40:18.138Z,3.40
2023-09-06T02:42:45.386Z,3.60
2023-09-06T02:45:12.774Z,3.30
2023-09-06T02:47:49.046Z,3.70
2023-09-06T02:50:17.973Z,3.33
2023-09-06T02:52:47.776Z,3.47
2023-09-06T02:55:14.746Z,3.43
2023-09-06T02:57:42.687Z,3.07
2023-09-06T03:00:30.759Z,3.87
2023-09-06T03:03:07.935Z,3.27
2023-09-06T03:05:44.885Z,3.60
2023-09-06T03:08:15.770Z,3.97
2023-09-06T03:10:43.604Z,3.13
2023-09-06T03:13:12.866Z,3.43
2023-09-06T03:15:44.561Z,3.60
2023-09-06T03:18:11.404Z,3.37
2023-09-06T03:20:46.819Z,3.27
2023-09-06T03:23:18.608Z,3.80
2023-09-06T03:25:46.748Z,3.33
2023-09-06T03:28:13.464Z,3.70
2023-09-06T03:30:40.080Z,3.63
2023-09-06T03:33:07.398Z,3.57
2023-09-06T03:35:34.257Z,3.90
2023-09-06T03:38:01.181Z,3.77
2023-09-06T03:40:35.903Z,3.83
2023-09-06T03:43:06.898Z,3.80
2023-09-06T03:45:35.224Z,3.90
2023-09-06T03:48:01.884Z,4.57
2023-09-06T03:50:31.172Z,3.80
2023-09-06T03:52:58.380Z,3.73
2023-09-06T03:55:25.646Z,4.27
2023-09-06T03:57:53.510Z,4.07
2023-09-06T04:00:27.655Z,3.80
2023-09-06T04:03:01.068Z,3.77
2023-09-06T04:05:28.252Z,4.07
2023-09-06T04:07:57.362Z,3.90
2023-09-06T04:10:25.731Z,4.03
2023-09-06T04:12:54.558Z,3.93
2023-09-06T04:15:22.530Z,4.50
2023-09-06T04:17:58.622Z,3.63
2023-09-06T04:20:32.256Z,4.10
2023-09-06T04:23:05.181Z,4.30
2023-09-06T04:25:35.508Z,4.50
2023-09-06T04:28:02.626Z,4.07
2023-09-06T04:30:29.956Z,5.57
2023-09-06T04:32:58.818Z,5.30
2023-09-06T04:35:34.757Z,4.83
2023-09-06T04:38:03.745Z,5.03
2023-09-06T04:40:30.462Z,4.50
2023-09-06T04:42:57.051Z,4.20
2023-09-06T04:45:23.526Z,4.53
2023-09-06T04:47:50.266Z,4.70
2023-09-06T04:50:16.825Z,5.10
2023-09-06T04:52:48.552Z,4.90
2023-09-06T04:55:15.938Z,4.90
2023-09-06T04:57:42.671Z,4.83
2023-09-06T05:00:18.564Z,5.00
2023-09-06T05:02:47.023Z,4.97
2023-09-06T05:05:16.829Z,5.43
2023-09-06T05:07:43.236Z,5.27
2023-09-06T05:10:12.844Z,5.10
2023-09-06T05:12:40.028Z,5.90
2023-09-06T05:15:07.631Z,5.17
2023-09-06T05:17:34.228Z,5.13
2023-09-06T05:20:28.848Z,5.00
2023-09-06T05:22:57.185Z,5.63
2023-09-06T05:25:23.696Z,5.17
2023-09-06T05:27:50.680Z,5.20
2023-09-06T05:30:17.281Z,5.37
2023-09-06T05:32:44.302Z,5.20
2023-09-06T05:35:11.644Z,5.60
2023-09-06T05:37:39.205Z,5.50
2023-09-06T05:40:07.097Z,6.07
2023-09-06T05:42:33.604Z,6.23
2023-09-06T05:45:00.128Z,5.83
2023-09-06T05:47:26.745Z,5.20
2023-09-06T05:49:56.822Z,5.83
2023-09-06T05:52:23.754Z,6.37
2023-09-06T05:54:51.023Z,7.47
2023-09-06T05:57:19.540Z,7.70
2023-09-06T05:59:46.047Z,7.47
2023-09-06T06:02:13.138Z,6.97
2023-09-06T06:04:40.932Z,7.20
2023-09-06T06:07:07.600Z,7.80
2023-09-06T06:09:34.918Z,7.73
2023-09-06T06:12:04.685Z,8.87
2023-09-06T06:14:31.393Z,8.93
2023-09-06T06:16:58.521Z,9.33
2023-09-06T06:19:25.103Z,8.50
2023-09-06T06:21:51.758Z,8.30
2023-09-06T06:24:18.587Z,8.73
2023-09-06T06:26:44.976Z,8.50
2023-09-06T06:29:11.474Z,8.07
2023-09-06T06:31:38.147Z,7.87
2023-09-06T06:34:04.985Z,7.67
2023-09-06T06:36:32.604Z,7.57
2023-09-06T06:38:59.512Z,6.27
2023-09-06T06:41:27.068Z,7.03
2023-09-06T06:43:53.911Z,6.73
2023-09-06T06:46:31.619Z,7.07
2023-09-06T06:48:58.240Z,7.03
2023-09-06T06:51:30.040Z,6.50
2023-09-06T06:53:56.430Z,5.83
2023-09-06T06:56:22.964Z,6.37
2023-09-06T06:58:49.782Z,6.33
2023-09-06T07:01:16.451Z,6.93
2023-09-06T07:03:43.000Z,7.43
2023-09-06T07:06:09.652Z,6.43
2023-09-06T07:08:39.252Z,6.80
2023-09-06T07:11:06.163Z,7.30
2023-09-06T07:13:32.620Z,7.00
2023-09-06T07:15:59.917Z,7.53
2023-09-06T07:18:26.531Z,6.63
2023-09-06T07:23:49.563Z,5.90
2023-09-06T07:26:18.119Z,5.93
2023-09-06T07:28:46.648Z,5.83
2023-09-06T07:31:14.097Z,4.70
2023-09-06T07:33:41.016Z,3.90
2023-09-06T07:36:08.139Z,4.78
2023-09-06T07:38:34.993Z,4.50
2023-09-06T07:41:04.482Z,3.78
2023-09-06T07:43:31.601Z,4.10
2023-09-06T07:46:01.555Z,4.10
2023-09-06T07:48:30.836Z,4.25
2023-09-06T07:50:59.177Z,3.97
2023-09-06T07:53:27.084Z,4.13
2023-09-06T07:55:54.313Z,4.43
2023-09-06T07:58:21.322Z,4.30
2023-09-06T08:00:53.924Z,4.05
2023-09-06T08:03:27.293Z,4.00
2023-09-06T08:05:55.425Z,4.10
2023-09-06T08:08:21.852Z,4.05
2023-09-06T08:10:48.402Z,4.10
2023-09-06T08:13:14.755Z,4.43
2023-09-06T08:15:41.203Z,3.80
2023-09-06T08:18:09.539Z,3.88
2023-09-06T08:20:36.220Z,4.00
2023-09-06T08:23:02.849Z,3.80
2023-09-06T08:25:29.453Z,4.40
2023-09-06T08:27:55.852Z,4.07
2023-09-06T08:30:23.435Z,3.90
2023-09-06T08:32:52.118Z,3.25
2023-09-06T08:35:19.062Z,4.22
2023-09-06T08:37:48.362Z,4.10
2023-09-06T08:40:16.843Z,4.53
2023-09-06T08:42:45.185Z,4.82
2023-09-06T08:45:12.336Z,5.28
2023-09-06T08:47:42.988Z,4.20
2023-09-06T08:50:10.938Z,4.15
2023-09-06T08:52:42.246Z,4.30
2023-09-06T08:55:11.270Z,4.10
2023-09-06T08:57:42.858Z,3.70
2023-09-06T09:00:11.181Z,3.92
2023-09-06T09:02:38.695Z,3.83
2023-09-06T09:05:19.701Z,4.20
2023-09-06T09:07:59.171Z,4.00
2023-09-06T09:10:29.848Z,4.45
2023-09-06T09:12:57.830Z,3.80
2023-09-06T09:15:27.212Z,4.18
2023-09-06T09:18:00.999Z,4.00
2023-09-06T09:20:29.210Z,4.07
2023-09-06T09:23:02.756Z,4.13
2023-09-06T09:25:30.144Z,4.03
2023-09-06T09:28:00.077Z,3.92
2023-09-06T09:30:29.701Z,4.00
2023-09-06T09:33:02.704Z,4.35
2023-09-06T09:35:34.012Z,4.05
2023-09-06T09:38:02.649Z,4.32
2023-09-06T09:43:05.742Z,4.38
2023-09-06T09:45:44.942Z,4.55
2023-09-06T09:48:12.157Z,4.40
2023-09-06T09:50:42.294Z,4.60
2023-09-06T09:53:20.354Z,3.95
2023-09-06T09:55:49.037Z,4.00
2023-09-06T09:58:18.190Z,3.88
2023-09-06T10:00:44.676Z,4.03
2023-09-06T10:03:11.778Z,3.90
2023-09-06T10:05:39.031Z,3.95
2023-09-06T10:08:08.332Z,3.65
2023-09-06T10:10:38.276Z,3.90
2023-09-06T10:13:08.795Z,4.30
2023-09-06T10:15:40.895Z,4.13
2023-09-06T10:18:08.605Z,4.53
2023-09-06T10:20:38.340Z,4.35
2023-09-06T10:23:06.899Z,4.13
2023-09-06T10:25:38.566Z,4.07
2023-09-06T10:28:05.329Z,4.13
2023-09-06T10:30:48.861Z,3.90
2023-09-06T10:33:37.163Z,3.67
2023-09-06T10:36:13.320Z,3.70
2023-09-06T10:38:52.296Z,3.97
2023-09-06T10:41:20.066Z,4.00
2023-09-06T10:43:59.788Z,4.03
2023-09-06T10:46:34.502Z,4.05
2023-09-06T10:49:13.411Z,4.05
2023-09-06T10:52:04.283Z,3.75
2023-09-06T10:54:46.212Z,3.47
2023-09-06T10:57:16.424Z,3.47
2023-09-06T10:59:56.494Z,3.78
2023-09-06T11:02:23.392Z,4.18
2023-09-06T11:05:03.589Z,4.57
2023-09-06T11:07:49.241Z,3.95
2023-09-06T11:10:23.010Z,4.13
2023-09-06T11:12:49.454Z,4.38
2023-09-06T11:15:16.051Z,4.10
2023-09-06T11:17:43.542Z,4.07
2023-09-06T11:20:14.024Z,4.35
2023-09-06T11:22:59.421Z,3.90
2023-09-06T11:25:27.695Z,4.43
2023-09-06T11:27:59.379Z,4.20
2023-09-06T11:30:27.744Z,3.80
2023-09-06T11:32:56.415Z,3.88
2023-09-06T11:35:35.474Z,3.88
2023-09-06T11:38:04.095Z,4.38
2023-09-06T11:40:33.439Z,3.92
2023-09-06T11:43:06.274Z,4.55
2023-09-06T11:45:34.030Z,3.90
2023-09-06T11:48:05.941Z,3.75
2023-09-06T11:50:33.715Z,3.60
2023-09-06T11:53:05.620Z,3.97
2023-09-06T11:55:35.528Z,3.75
2023-09-06T11:58:02.062Z,4.00
2023-09-06T12:00:46.928Z,4.10
2023-09-06T12:03:17.675Z,4.10
2023-09-06T12:05:49.933Z,4.18
2023-09-06T12:08:22.922Z,4.18
2023-09-06T12:10:54.136Z,4.05
2023-09-06T12:13:47.566Z,3.95
2023-09-06T12:16:14.322Z,3.88
2023-09-06T12:18:41.096Z,4.07
2023-09-06T12:21:07.710Z,4.10
2023-09-06T12:23:38.009Z,4.13
2023-09-06T12:26:05.975Z,4.00
2023-09-06T12:28:33.394Z,4.18
2023-09-06T12:31:07.777Z,4.57
2023-09-06T12:33:39.199Z,4.03
2023-09-06T12:36:06.977Z,4.38
2023-09-06T12:38:33.667Z,4.13
2023-09-06T12:41:01.323Z,4.00
2023-09-06T12:43:27.730Z,3.72
2023-09-06T12:45:54.980Z,3.85
2023-09-06T12:48:22.763Z,3.45
2023-09-06T12:50:49.847Z,4.05
2023-09-06T12:53:17.221Z,4.13
2023-09-06T12:55:44.552Z,4.38
2023-09-06T12:58:11.003Z,3.95
2023-09-06T13:00:37.787Z,4.13
2023-09-06T13:03:04.312Z,4.78
2023-09-06T13:05:32.683Z,3.72
2023-09-06T13:08:02.874Z,3.85
2023-09-06T13:10:32.527Z,4.10
2023-09-06T13:12:59.277Z,4.20
2023-09-06T13:15:25.624Z,4.10
2023-09-06T13:17:52.040Z,3.95
2023-09-06T13:20:18.860Z,3.72
2023-09-06T13:22:47.850Z,4.05
2023-09-06T13:25:14.577Z,3.58
2023-09-06T13:27:42.765Z,4.20
2023-09-06T13:30:09.757Z,3.90
2023-09-06T13:32:36.384Z,4.20
2023-09-06T13:35:03.676Z,4.47
2023-09-06T13:37:30.796Z,3.95
2023-09-06T13:39:58.274Z,3.90
2023-09-06T13:42:24.973Z,4.70
2023-09-06T13:44:51.521Z,3.90
2023-09-06T13:47:18.542Z,4.00
2023-09-06T13:49:44.937Z,3.85
2023-09-06T13:52:12.868Z,4.10
2023-09-06T13:54:41.260Z,4.85
2023-09-06T13:57:08.344Z,3.55
2023-09-06T13:59:34.928Z,3.33
2023-09-06T14:02:01.507Z,3.75
2023-09-06T14:04:28.096Z,3.80
2023-09-06T14:06:55.577Z,3.65
2023-09-06T14:09:23.733Z,3.38
2023-09-06T14:11:50.773Z,3.28
2023-09-06T14:14:18.819Z,3.35
2023-09-06T14:16:46.078Z,3.65
2023-09-06T14:19:12.773Z,3.20
2023-09-06T14:21:46.414Z,3.63
2023-09-06T14:24:14.687Z,3.80
2023-09-06T14:26:44.029Z,3.20
2023-09-06T14:29:12.962Z,3.10
2023-09-06T14:31:40.061Z,3.10
2023-09-06T14:34:06.531Z,3.15
2023-09-06T14:36:33.230Z,3.30
2023-09-06T14:39:00.044Z,3.15
2023-09-06T14:41:26.484Z,3.20
2023-09-06T14:43:53.144Z,3.13
2023-09-06T14:46:19.934Z,3.55
2023-09-06T14:48:47.148Z,3.67
2023-09-06T14:51:13.643Z,3.13
2023-09-06T14:53:40.021Z,3.65
2023-09-06T14:56:08.000Z,3.35
2023-09-06T14:58:34.657Z,3.22
2023-09-06T15:01:01.971Z,3.20
2023-09-06T15:03:28.864Z,3.67
2023-09-06T15:05:55.424Z,3.90
2023-09-06T15:08:21.784Z,3.65
2023-09-06T15:10:48.357Z,3.60
2023-09-06T15:13:14.781Z,3.88
2023-09-06T15:15:43.373Z,4.20
2023-09-06T15:18:10.377Z,3.78
2023-09-06T15:20:37.338Z,3.90
2023-09-06T15:23:04.123Z,4.00
2023-09-06T15:25:30.992Z,3.50
2023-09-06T15:27:57.374Z,3.67
2023-09-06T15:30:23.940Z,3.50
2023-09-06T15:32:50.564Z,3.92
2023-09-06T15:35:17.730Z,3.70
2023-09-06T15:37:58.183Z,3.70
2023-09-06T15:40:25.113Z,3.42
2023-09-06T15:42:51.575Z,3.92
2023-09-06T15:45:18.019Z,3.70
2023-09-06T15:47:46.685Z,3.97
2023-09-06T15:50:20.916Z,3.72
2023-09-06T15:52:48.754Z,3.83
2023-09-06T15:55:16.009Z,4.05
2023-09-06T15:57:43.506Z,3.80
2023-09-06T16:00:24.286Z,3.47
2023-09-06T16:02:57.428Z,3.67
2023-09-06T16:05:23.994Z,3.80
2023-09-06T16:07:50.446Z,3.75
2023-09-06T16:10:16.792Z,3.83
2023-09-06T16:12:44.874Z,3.60
2023-09-06T16:15:13.113Z,3.40
2023-09-06T16:17:39.681Z,4.00
2023-09-06T16:20:06.792Z,3.75
2023-09-06T16:22:33.196Z,3.60
2023-09-06T16:25:01.722Z,3.53
2023-09-06T16:27:28.046Z,3.38
2023-09-06T16:29:54.615Z,3.88
2023-09-06T16:32:21.125Z,3.53
2023-09-06T16:34:47.622Z,3.40
2023-09-06T16:37:14.024Z,3.58
2023-09-06T16:39:44.519Z,3.25
2023-09-06T16:42:11.056Z,3.50
2023-09-06T16:44:39.030Z,3.50
2023-09-06T16:47:06.023Z,3.75
2023-09-06T16:49:32.878Z,3.72
2023-09-06T16:51:59.397Z,3.25
2023-09-06T16:54:26.008Z,3.83
2023-09-06T16:56:52.334Z,3.33
2023-09-06T16:59:18.712Z,3.58
2023-09-06T17:01:45.236Z,3.50
2023-09-06T17:04:11.711Z,4.13
2023-09-06T17:06:38.278Z,3.40
2023-09-06T17:09:09.549Z,3.63
2023-09-06T17:11:41.344Z,3.65
2023-09-06T17:14:08.354Z,4.00
2023-09-06T17:16:34.991Z,3.90
2023-09-06T17:19:16.723Z,3.75
2023-09-06T17:21:43.128Z,3.53
2023-09-06T17:24:10.008Z,3.85
2023-09-06T17:26:42.561Z,3.80
2023-09-06T17:29:15.315Z,3.40
2023-09-06T17:31:43.100Z,3.80
2023-09-06T17:34:12.855Z,4.07
2023-09-06T17:36:39.869Z,4.55
2023-09-06T17:39:09.128Z,5.35
2023-09-06T17:41:36.853Z,5.65
2023-09-06T17:44:06.844Z,4.35
2023-09-06T17:46:36.634Z,4.28
2023-09-06T17:49:06.992Z,4.60
2023-09-06T17:51:35.283Z,4.57
2023-09-06T17:54:04.408Z,4.72
2023-09-06T17:56:30.883Z,4.65
2023-09-06T17:58:57.812Z,4.85
2023-09-06T18:01:24.875Z,4.35
2023-09-06T18:03:58.837Z,3.80
2023-09-06T18:06:26.929Z,4.55
2023-09-06T18:08:59.202Z,4.35
2023-09-06T18:11:26.082Z,4.28
2023-09-06T18:13:53.167Z,5.00
2023-09-06T18:16:19.748Z,4.18
2023-09-06T18:18:46.466Z,4.82
2023-09-06T18:21:14.718Z,5.07
2023-09-06T18:23:42.160Z,4.80
2023-09-06T18:26:11.741Z,6.28
2023-09-06T18:28:38.289Z,13.27
2023-09-06T18:31:05.266Z,16.10
2023-09-06T18:33:31.738Z,13.20
2023-09-06T18:35:58.151Z,10.60
2023-09-06T18:38:25.093Z,9.32
2023-09-06T18:40:55.339Z,8.43
2023-09-06T18:43:23.343Z,7.10
2023-09-06T18:45:50.945Z,6.97
2023-09-06T18:48:20.389Z,7.22
2023-09-06T18:50:48.011Z,5.70
2023-09-06T18:53:14.841Z,6.25
2023-09-06T18:55:44.296Z,6.40
2023-09-06T18:58:11.999Z,6.30
2023-09-06T19:00:39.927Z,5.57
2023-09-06T19:03:12.312Z,6.40
2023-09-06T19:05:40.060Z,7.20
2023-09-06T19:08:12.543Z,6.82
2023-09-06T19:10:41.056Z,6.20
2023-09-06T19:13:08.357Z,6.22
2023-09-06T19:15:35.149Z,6.00
2023-09-06T19:18:03.443Z,6.68
2023-09-06T19:20:29.932Z,6.28
2023-09-06T19:22:56.395Z,5.88
2023-09-06T19:25:26.412Z,6.38
2023-09-06T19:27:53.330Z,6.43
2023-09-06T19:30:20.135Z,7.03
2023-09-06T19:32:46.636Z,5.93
2023-09-06T19:35:14.132Z,6.30
2023-09-06T19:37:40.536Z,6.28
2023-09-06T19:40:08.150Z,5.63
2023-09-06T19:42:34.941Z,5.63
2023-09-06T19:45:02.301Z,6.47
2023-09-06T19:47:28.853Z,5.53
2023-09-06T19:49:56.849Z,6.00
2023-09-06T19:52:23.328Z,5.80
2023-09-06T19:54:49.729Z,5.88
2023-09-06T19:57:16.776Z,5.55
2023-09-06T19:59:43.151Z,5.75
2023-09-06T20:02:09.607Z,5.45
2023-09-06T20:04:36.389Z,5.80
2023-09-06T20:07:05.174Z,6.20
2023-09-06T20:09:31.951Z,7.40
2023-09-06T20:11:58.586Z,6.60
2023-09-06T20:14:28.639Z,6.88
2023-09-06T20:16:56.694Z,6.38
2023-09-06T20:19:23.559Z,6.25
2023-09-06T20:21:50.044Z,6.75
2023-09-06T20:24:17.646Z,5.75
2023-09-06T20:26:44.289Z,6.20
2023-09-06T20:29:11.024Z,6.97
2023-09-06T20:31:38.038Z,5.78
2023-09-06T20:34:05.067Z,6.25
2023-09-06T20:36:32.838Z,5.87
2023-09-06T20:38:59.297Z,5.73
2023-09-06T20:41:25.797Z,5.47
2023-09-06T20:43:52.194Z,6.40
2023-09-06T20:46:18.672Z,5.87
2023-09-06T20:48:47.078Z,6.90
2023-09-06T20:51:15.368Z,6.47
2023-09-06T20:53:44.253Z,6.67
2023-09-06T20:56:11.260Z,7.40
2023-09-06T20:58:37.687Z,7.17
2023-09-06T21:01:14.970Z,6.70
2023-09-06T21:03:42.099Z,7.63
2023-09-06T21:06:08.761Z,7.20
2023-09-06T21:08:35.342Z,7.17
2023-09-06T21:11:02.616Z,7.20
2023-09-06T21:13:29.073Z,6.27
2023-09-06T21:15:57.127Z,5.87
2023-09-06T21:18:24.598Z,6.20
2023-09-06T21:20:51.212Z,6.80
2023-09-06T21:23:17.635Z,6.57
2023-09-06T21:25:44.252Z,5.83
2023-09-06T21:28:10.783Z,6.00
2023-09-06T21:30:42.181Z,6.80
2023-09-06T21:33:09.885Z,7.53
2023-09-06T21:35:41.704Z,6.80
2023-09-06T21:38:08.844Z,5.87
2023-09-06T21:40:43.282Z,6.03
2023-09-06T21:43:19.232Z,6.10
2023-09-06T21:45:46.693Z,5.80
2023-09-06T21:48:13.430Z,5.90
2023-09-06T21:50:41.852Z,6.13
2023-09-06T21:53:08.508Z,6.47
2023-09-06T21:55:35.086Z,6.30
2023-09-06T21:58:09.509Z,6.47
2023-09-06T22:00:37.187Z,6.43
2023-09-06T22:03:03.829Z,6.77
2023-09-06T22:05:30.229Z,7.00
2023-09-06T22:07:56.628Z,6.30
2023-09-06T22:10:23.093Z,7.00
2023-09-06T22:12:49.732Z,6.70
2023-09-06T22:15:16.294Z,6.53
2023-09-06T22:17:43.274Z,6.63
2023-09-06T22:20:10.229Z,6.50
2023-09-06T22:22:37.011Z,5.87
2023-09-06T22:25:05.561Z,5.83
2023-09-06T22:27:31.929Z,5.87
2023-09-06T22:29:58.318Z,5.90
2023-09-06T22:32:24.801Z,5.90
2023-09-06T22:34:51.159Z,6.17
2023-09-06T22:37:17.516Z,6.07
2023-09-06T22:39:44.147Z,6.30
2023-09-06T22:42:12.023Z,5.70
2023-09-06T22:44:38.514Z,6.63
2023-09-06T22:47:05.014Z,6.13
2023-09-06T22:49:31.457Z,6.60
2023-09-06T22:51:58.049Z,6.17
2023-09-06T22:54:24.473Z,6.50
2023-09-06T22:56:50.932Z,5.93
2023-09-06T22:59:17.434Z,5.73
2023-09-06T23:01:43.962Z,5.90
2023-09-06T23:04:11.644Z,5.93
2023-09-06T23:06:38.309Z,6.10
2023-09-06T23:09:07.951Z,6.67
2023-09-06T23:11:35.505Z,6.00
2023-09-06T23:14:06.373Z,6.13
2023-09-06T23:16:34.784Z,6.67
2023-09-06T23:19:03.185Z,6.00
2023-09-06T23:21:38.766Z,5.97
2023-09-06T23:24:12.564Z,7.20
2023-09-06T23:26:40.048Z,6.60
2023-09-06T23:29:08.327Z,6.50
2023-09-06T23:31:40.061Z,7.13
2023-09-06T23:34:15.621Z,7.30
2023-09-06T23:36:42.082Z,6.70
2023-09-06T23:39:12.522Z,7.20
2023-09-06T23:41:41.356Z,6.87
2023-09-06T23:44:09.479Z,7.00
2023-09-06T23:46:36.241Z,7.00
2023-09-06T23:49:03.043Z,6.60
2023-09-06T23:51:30.775Z,6.43
2023-09-06T23:53:57.101Z,6.17
2023-09-06T23:56:23.497Z,6.37
2023-09-06T23:58:49.896Z,5.77
